sensor_id;sensor_type;location;lat;lon;timestamp;pressure;altitude;pressure_sealevel;temperature;humidity
60897;BME280;46749;32.932;-117.130;2023-07-22T00:01:04;100880.81;;;18.69;62.63
60897;BME280;46749;32.932;-117.130;2023-07-22T00:03:30;100866.78;;;18.70;62.97
60897;BME280;46749;32.932;-117.130;2023-07-22T00:06:06;100868.53;;;18.71;62.87
60897;BME280;46749;32.932;-117.130;2023-07-22T00:08:34;100867.66;;;18.70;62.74
60897;BME280;46749;32.932;-117.130;2023-07-22T00:11:00;100872.03;;;18.73;62.85
60897;BME280;46749;32.932;-117.130;2023-07-22T00:13:27;100858.88;;;18.71;62.82
60897;BME280;46749;32.932;-117.130;2023-07-22T00:15:53;100853.63;;;18.73;62.78
60897;BME280;46749;32.932;-117.130;2023-07-22T00:18:20;100850.13;;;18.74;62.68
60897;BME280;46749;32.932;-117.130;2023-07-22T00:20:46;100846.63;;;18.75;63.13
60897;BME280;46749;32.932;-117.130;2023-07-22T00:23:13;100851.91;;;18.75;62.95
60897;BME280;46749;32.932;-117.130;2023-07-22T00:25:41;100851.00;;;18.76;62.83
60897;BME280;46749;32.932;-117.130;2023-07-22T00:28:07;100840.50;;;18.76;62.58
60897;BME280;46749;32.932;-117.130;2023-07-22T00:30:33;100842.25;;;18.77;62.94
60897;BME280;46749;32.932;-117.130;2023-07-22T00:33:20;100843.13;;;18.77;62.65
60897;BME280;46749;32.932;-117.130;2023-07-22T00:35:49;100850.13;;;18.78;62.90
60897;BME280;46749;32.932;-117.130;2023-07-22T00:38:18;100847.53;;;18.81;62.84
60897;BME280;46749;32.932;-117.130;2023-07-22T00:40:45;100852.81;;;18.81;62.63
60897;BME280;46749;32.932;-117.130;2023-07-22T00:43:11;100850.16;;;18.81;63.07
60897;BME280;46749;32.932;-117.130;2023-07-22T00:45:37;100846.66;;;18.81;63.19
60897;BME280;46749;32.932;-117.130;2023-07-22T00:48:05;100844.03;;;18.81;62.72
60897;BME280;46749;32.932;-117.130;2023-07-22T00:50:33;100845.78;;;18.82;63.02
60897;BME280;46749;32.932;-117.130;2023-07-22T00:52:59;100836.13;;;18.82;62.63
60897;BME280;46749;32.932;-117.130;2023-07-22T00:55:26;100843.16;;;18.83;62.79
60897;BME280;46749;32.932;-117.130;2023-07-22T00:57:54;100842.28;;;18.83;62.56
60897;BME280;46749;32.932;-117.130;2023-07-22T01:00:21;100844.03;;;18.84;62.66
60897;BME280;46749;32.932;-117.130;2023-07-22T01:02:47;100838.75;;;18.84;62.91
60897;BME280;46749;32.932;-117.130;2023-07-22T01:05:14;100839.63;;;18.84;63.08
60897;BME280;46749;32.932;-117.130;2023-07-22T01:07:40;100831.75;;;18.84;62.98
60897;BME280;46749;32.932;-117.130;2023-07-22T01:10:07;100838.78;;;18.87;62.51
60897;BME280;46749;32.932;-117.130;2023-07-22T01:12:37;100832.66;;;18.86;62.60
60897;BME280;46749;32.932;-117.130;2023-07-22T01:15:04;100840.53;;;18.88;62.61
60897;BME280;46749;32.932;-117.130;2023-07-22T01:17:34;100839.66;;;18.88;62.84
60897;BME280;46749;32.932;-117.130;2023-07-22T01:20:02;100839.66;;;18.89;62.72
60897;BME280;46749;32.932;-117.130;2023-07-22T01:22:29;100831.78;;;18.89;62.61
60897;BME280;46749;32.932;-117.130;2023-07-22T01:24:56;100837.91;;;18.91;62.50
60897;BME280;46749;32.932;-117.130;2023-07-22T01:27:22;100829.13;;;18.91;62.63
60897;BME280;46749;32.932;-117.130;2023-07-22T01:29:51;100826.50;;;18.91;62.80
60897;BME280;46749;32.932;-117.130;2023-07-22T01:32:18;100830.91;;;18.92;62.65
60897;BME280;46749;32.932;-117.130;2023-07-22T01:34:46;100830.91;;;18.92;62.85
60897;BME280;46749;32.932;-117.130;2023-07-22T01:37:12;100831.81;;;18.92;62.54
60897;BME280;46749;32.932;-117.130;2023-07-22T01:39:38;100833.56;;;18.93;62.69
60897;BME280;46749;32.932;-117.130;2023-07-22T01:42:04;100836.19;;;18.95;62.69
60897;BME280;46749;32.932;-117.130;2023-07-22T01:44:30;100836.19;;;18.95;62.63
60897;BME280;46749;32.932;-117.130;2023-07-22T01:46:56;100830.03;;;18.94;63.02
60897;BME280;46749;32.932;-117.130;2023-07-22T01:49:23;100832.69;;;18.96;62.85
60897;BME280;46749;32.932;-117.130;2023-07-22T01:51:50;100826.53;;;18.95;62.68
60897;BME280;46749;32.932;-117.130;2023-07-22T01:54:16;100830.03;;;18.97;62.94
60897;BME280;46749;32.932;-117.130;2023-07-22T01:56:42;100829.16;;;18.97;62.81
60897;BME280;46749;32.932;-117.130;2023-07-22T01:59:08;100828.28;;;18.98;62.93
60897;BME280;46749;32.932;-117.130;2023-07-22T02:01:35;100826.56;;;18.98;62.94
60897;BME280;46749;32.932;-117.130;2023-07-22T02:04:01;100816.91;;;18.99;62.64
60897;BME280;46749;32.932;-117.130;2023-07-22T02:06:27;100816.03;;;18.98;62.78
60897;BME280;46749;32.932;-117.130;2023-07-22T02:08:54;100812.53;;;18.99;62.96
60897;BME280;46749;32.932;-117.130;2023-07-22T02:11:21;100812.53;;;18.99;62.87
60897;BME280;46749;32.932;-117.130;2023-07-22T02:13:48;100815.16;;;19.01;62.86
60897;BME280;46749;32.932;-117.130;2023-07-22T02:16:14;100816.03;;;19.01;62.56
60897;BME280;46749;32.932;-117.130;2023-07-22T02:18:40;100809.88;;;19.01;62.94
60897;BME280;46749;32.932;-117.130;2023-07-22T02:21:06;100811.63;;;19.02;62.85
60897;BME280;46749;32.932;-117.130;2023-07-22T02:23:32;100810.75;;;19.01;62.78
60897;BME280;46749;32.932;-117.130;2023-07-22T02:25:59;100812.53;;;19.02;62.64
60897;BME280;46749;32.932;-117.130;2023-07-22T02:28:25;100823.03;;;19.02;62.93
60897;BME280;46749;32.932;-117.130;2023-07-22T02:30:52;100815.16;;;19.02;63.05
60897;BME280;46749;32.932;-117.130;2023-07-22T02:33:19;100823.91;;;19.04;62.78
60897;BME280;46749;32.932;-117.130;2023-07-22T02:35:47;100834.44;;;19.04;62.87
60897;BME280;46749;32.932;-117.130;2023-07-22T02:38:14;100830.97;;;19.05;62.89
60897;BME280;46749;32.932;-117.130;2023-07-22T02:40:40;100833.59;;;19.05;62.55
60897;BME280;46749;32.932;-117.130;2023-07-22T02:43:06;100835.34;;;19.06;62.45
60897;BME280;46749;32.932;-117.130;2023-07-22T02:45:33;100842.38;;;19.07;62.69
60897;BME280;46749;32.932;-117.130;2023-07-22T02:48:00;100829.22;;;19.07;62.57
60897;BME280;46749;32.932;-117.130;2023-07-22T02:50:26;100836.22;;;19.08;62.55
60897;BME280;46749;32.932;-117.130;2023-07-22T02:52:52;100831.84;;;19.07;62.54
60897;BME280;46749;32.932;-117.130;2023-07-22T02:55:18;100833.59;;;19.08;62.69
60897;BME280;46749;32.932;-117.130;2023-07-22T02:57:46;100833.59;;;19.08;63.01
60897;BME280;46749;32.932;-117.130;2023-07-22T03:00:14;100844.13;;;19.08;62.69
60897;BME280;46749;32.932;-117.130;2023-07-22T03:02:50;100841.50;;;19.10;62.88
60897;BME280;46749;32.932;-117.130;2023-07-22T03:05:16;100847.63;;;19.09;62.81
60897;BME280;46749;32.932;-117.130;2023-07-22T03:07:43;100836.22;;;19.10;62.66
60897;BME280;46749;32.932;-117.130;2023-07-22T03:10:09;100846.75;;;19.08;62.65
60897;BME280;46749;32.932;-117.130;2023-07-22T03:12:36;100829.22;;;19.09;62.75
60897;BME280;46749;32.932;-117.130;2023-07-22T03:15:02;100832.72;;;19.08;62.99
60897;BME280;46749;32.932;-117.130;2023-07-22T03:17:35;100830.97;;;19.08;62.95
60897;BME280;46749;32.932;-117.130;2023-07-22T03:20:03;100827.47;;;19.08;62.70
60897;BME280;46749;32.932;-117.130;2023-07-22T03:22:47;100837.09;;;19.09;62.91
60897;BME280;46749;32.932;-117.130;2023-07-22T03:25:14;100838.00;;;19.08;62.88
60897;BME280;46749;32.932;-117.130;2023-07-22T03:27:43;100836.22;;;19.08;62.65
60897;BME280;46749;32.932;-117.130;2023-07-22T03:30:12;100838.88;;;19.08;62.61
60897;BME280;46749;32.932;-117.130;2023-07-22T03:32:46;100826.59;;;19.07;62.51
60897;BME280;46749;32.932;-117.130;2023-07-22T03:35:18;100836.22;;;19.08;62.87
60897;BME280;46749;32.932;-117.130;2023-07-22T03:37:45;100842.38;;;19.07;63.04
60897;BME280;46749;32.932;-117.130;2023-07-22T03:40:11;100844.13;;;19.07;62.93
60897;BME280;46749;32.932;-117.130;2023-07-22T03:42:43;100838.00;;;19.08;62.80
60897;BME280;46749;32.932;-117.130;2023-07-22T03:45:09;100848.50;;;19.08;62.55
60897;BME280;46749;32.932;-117.130;2023-07-22T03:47:35;100846.75;;;19.08;62.91
60897;BME280;46749;32.932;-117.130;2023-07-22T03:50:02;100839.75;;;19.09;62.83
60897;BME280;46749;32.932;-117.130;2023-07-22T03:52:28;100838.88;;;19.08;62.82
60897;BME280;46749;32.932;-117.130;2023-07-22T03:54:54;100836.22;;;19.08;62.77
60897;BME280;46749;32.932;-117.130;2023-07-22T03:57:28;100837.97;;;19.09;62.84
60897;BME280;46749;32.932;-117.130;2023-07-22T03:59:54;100838.88;;;19.08;62.67
60897;BME280;46749;32.932;-117.130;2023-07-22T04:02:21;100843.25;;;19.09;62.41
60897;BME280;46749;32.932;-117.130;2023-07-22T04:04:47;100838.88;;;19.08;62.62
60897;BME280;46749;32.932;-117.130;2023-07-22T04:07:14;100831.84;;;19.10;62.91
60897;BME280;46749;32.932;-117.130;2023-07-22T04:09:40;100830.09;;;19.09;62.49
60897;BME280;46749;32.932;-117.130;2023-07-22T04:12:07;100837.09;;;19.10;62.74
60897;BME280;46749;32.932;-117.130;2023-07-22T04:14:33;100831.84;;;19.10;62.80
60897;BME280;46749;32.932;-117.130;2023-07-22T04:17:00;100832.72;;;19.09;62.50
60897;BME280;46749;32.932;-117.130;2023-07-22T04:19:26;100836.22;;;19.10;62.77
60897;BME280;46749;32.932;-117.130;2023-07-22T04:21:52;100832.72;;;19.09;62.81
60897;BME280;46749;32.932;-117.130;2023-07-22T04:24:18;100842.38;;;19.10;62.82
60897;BME280;46749;32.932;-117.130;2023-07-22T04:26:44;100849.38;;;19.10;62.77
60897;BME280;46749;32.932;-117.130;2023-07-22T04:29:11;100851.16;;;19.09;62.33
60897;BME280;46749;32.932;-117.130;2023-07-22T04:31:38;100847.63;;;19.10;62.46
60897;BME280;46749;32.932;-117.130;2023-07-22T04:34:05;100845.88;;;19.09;62.59
60897;BME280;46749;32.932;-117.130;2023-07-22T04:36:32;100845.88;;;19.09;62.48
60897;BME280;46749;32.932;-117.130;2023-07-22T04:38:58;100844.13;;;19.08;62.28
60897;BME280;46749;32.932;-117.130;2023-07-22T04:41:25;100846.75;;;19.08;62.82
60897;BME280;46749;32.932;-117.130;2023-07-22T04:43:51;100851.16;;;19.08;62.70
60897;BME280;46749;32.932;-117.130;2023-07-22T04:46:17;100862.56;;;19.08;62.44
60897;BME280;46749;32.932;-117.130;2023-07-22T04:48:43;100861.69;;;19.08;62.69
60897;BME280;46749;32.932;-117.130;2023-07-22T04:51:10;100853.78;;;19.08;62.51
60897;BME280;46749;32.932;-117.130;2023-07-22T04:53:36;100865.19;;;19.07;62.72
60897;BME280;46749;32.932;-117.130;2023-07-22T04:56:02;100862.56;;;19.07;62.70
60897;BME280;46749;32.932;-117.130;2023-07-22T04:58:28;100862.56;;;19.07;62.67
60897;BME280;46749;32.932;-117.130;2023-07-22T05:00:54;100868.69;;;19.07;62.41
60897;BME280;46749;32.932;-117.130;2023-07-22T05:03:20;100875.72;;;19.07;62.53
60897;BME280;46749;32.932;-117.130;2023-07-22T05:05:51;100874.84;;;19.06;62.59
60897;BME280;46749;32.932;-117.130;2023-07-22T05:08:17;100887.13;;;19.07;62.48
60897;BME280;46749;32.932;-117.130;2023-07-22T05:10:43;100888.00;;;19.06;62.75
60897;BME280;46749;32.932;-117.130;2023-07-22T05:13:09;100883.63;;;19.07;62.60
60897;BME280;46749;32.932;-117.130;2023-07-22T05:15:35;100882.75;;;19.06;62.75
60897;BME280;46749;32.932;-117.130;2023-07-22T05:18:02;100873.97;;;19.07;62.27
60897;BME280;46749;32.932;-117.130;2023-07-22T05:20:28;100882.75;;;19.06;62.53
60897;BME280;46749;32.932;-117.130;2023-07-22T05:22:55;100877.47;;;19.06;62.29
60897;BME280;46749;32.932;-117.130;2023-07-22T05:25:21;100882.75;;;19.06;62.62
60897;BME280;46749;32.932;-117.130;2023-07-22T05:27:47;100870.47;;;19.05;62.32
60897;BME280;46749;32.932;-117.130;2023-07-22T05:30:13;100870.47;;;19.05;62.26
60897;BME280;46749;32.932;-117.130;2023-07-22T05:32:39;100870.47;;;19.05;62.30
60897;BME280;46749;32.932;-117.130;2023-07-22T05:35:06;100871.31;;;19.04;62.47
60897;BME280;46749;32.932;-117.130;2023-07-22T05:37:32;100864.28;;;19.03;62.38
60897;BME280;46749;32.932;-117.130;2023-07-22T05:39:59;100873.06;;;19.04;62.66
60897;BME280;46749;32.932;-117.130;2023-07-22T05:42:26;100866.03;;;19.03;62.64
60897;BME280;46749;32.932;-117.130;2023-07-22T05:44:57;100860.78;;;19.04;62.61
60897;BME280;46749;32.932;-117.130;2023-07-22T05:47:24;100858.13;;;19.04;62.53
60897;BME280;46749;32.932;-117.130;2023-07-22T05:49:51;100866.91;;;19.03;62.48
60897;BME280;46749;32.932;-117.130;2023-07-22T05:52:17;100858.16;;;19.03;62.47
60897;BME280;46749;32.932;-117.130;2023-07-22T05:54:43;100859.91;;;19.02;62.15
60897;BME280;46749;32.932;-117.130;2023-07-22T05:57:11;100859.91;;;19.02;62.30
60897;BME280;46749;32.932;-117.130;2023-07-22T05:59:38;100844.09;;;19.02;62.54
60897;BME280;46749;32.932;-117.130;2023-07-22T06:02:05;100855.50;;;19.03;62.31
60897;BME280;46749;32.932;-117.130;2023-07-22T06:04:32;100850.25;;;19.03;62.38
60897;BME280;46749;32.932;-117.130;2023-07-22T06:06:58;100851.13;;;19.03;62.57
60897;BME280;46749;32.932;-117.130;2023-07-22T06:09:24;100851.13;;;19.03;62.45
60897;BME280;46749;32.932;-117.130;2023-07-22T06:11:51;100846.75;;;19.02;62.38
60897;BME280;46749;32.932;-117.130;2023-07-22T06:14:17;100850.25;;;19.03;62.45
60897;BME280;46749;32.932;-117.130;2023-07-22T06:16:43;100854.63;;;19.02;62.35
60897;BME280;46749;32.932;-117.130;2023-07-22T06:19:09;100854.63;;;19.02;62.13
60897;BME280;46749;32.932;-117.130;2023-07-22T06:21:35;100846.75;;;19.02;62.25
60897;BME280;46749;32.932;-117.130;2023-07-22T06:24:01;100845.84;;;19.02;62.63
60897;BME280;46749;32.932;-117.130;2023-07-22T06:26:27;100848.50;;;19.02;62.50
60897;BME280;46749;32.932;-117.130;2023-07-22T06:28:54;100848.50;;;19.00;62.48
60897;BME280;46749;32.932;-117.130;2023-07-22T06:31:20;100847.63;;;19.00;62.10
60897;BME280;46749;32.932;-117.130;2023-07-22T06:33:47;100851.13;;;19.00;62.04
60897;BME280;46749;32.932;-117.130;2023-07-22T06:36:13;100851.13;;;19.00;62.42
60897;BME280;46749;32.932;-117.130;2023-07-22T06:38:39;100861.66;;;19.00;62.42
60897;BME280;46749;32.932;-117.130;2023-07-22T06:41:05;100859.03;;;18.99;62.01
60897;BME280;46749;32.932;-117.130;2023-07-22T06:43:32;100848.50;;;18.99;61.95
60897;BME280;46749;32.932;-117.130;2023-07-22T06:45:58;100851.13;;;18.99;62.04
60897;BME280;46749;32.932;-117.130;2023-07-22T06:48:24;100844.09;;;18.99;62.18
60897;BME280;46749;32.932;-117.130;2023-07-22T06:50:50;100843.22;;;18.99;62.16
60897;BME280;46749;32.932;-117.130;2023-07-22T06:53:16;100845.84;;;18.97;61.97
60897;BME280;46749;32.932;-117.130;2023-07-22T06:55:49;100848.47;;;18.97;62.26
60897;BME280;46749;32.932;-117.130;2023-07-22T06:58:17;100845.00;;;18.98;62.21
60897;BME280;46749;32.932;-117.130;2023-07-22T07:00:43;100846.72;;;18.96;62.06
60897;BME280;46749;32.932;-117.130;2023-07-22T07:03:09;100841.44;;;18.96;62.25
60897;BME280;46749;32.932;-117.130;2023-07-22T07:05:35;100837.06;;;18.95;61.99
60897;BME280;46749;32.932;-117.130;2023-07-22T07:08:02;100839.69;;;18.95;62.06
60897;BME280;46749;32.932;-117.130;2023-07-22T07:10:28;100839.69;;;18.95;61.92
60897;BME280;46749;32.932;-117.130;2023-07-22T07:12:54;100847.59;;;18.95;62.31
60897;BME280;46749;32.932;-117.130;2023-07-22T07:15:20;100845.84;;;18.94;62.38
60897;BME280;46749;32.932;-117.130;2023-07-22T07:17:46;100842.31;;;18.94;62.23
60897;BME280;46749;32.932;-117.130;2023-07-22T07:20:14;100849.34;;;18.93;62.26
60897;BME280;46749;32.932;-117.130;2023-07-22T07:22:40;100835.28;;;18.91;61.90
60897;BME280;46749;32.932;-117.130;2023-07-22T07:25:06;100834.41;;;18.91;62.08
60897;BME280;46749;32.932;-117.130;2023-07-22T07:27:33;100834.41;;;18.91;62.11
60897;BME280;46749;32.932;-117.130;2023-07-22T07:29:59;100838.78;;;18.90;62.13
60897;BME280;46749;32.932;-117.130;2023-07-22T07:32:25;100844.94;;;18.89;62.11
60897;BME280;46749;32.932;-117.130;2023-07-22T07:34:51;100844.94;;;18.89;62.51
60897;BME280;46749;32.932;-117.130;2023-07-22T07:37:17;100845.81;;;18.88;62.11
60897;BME280;46749;32.932;-117.130;2023-07-22T07:39:43;100851.94;;;18.87;62.08
60897;BME280;46749;32.932;-117.130;2023-07-22T07:42:10;100850.19;;;18.86;62.55
60897;BME280;46749;32.932;-117.130;2023-07-22T07:44:36;100853.72;;;18.86;62.55
60897;BME280;46749;32.932;-117.130;2023-07-22T07:47:03;100856.31;;;18.85;62.46
60897;BME280;46749;32.932;-117.130;2023-07-22T07:49:29;100851.91;;;18.84;62.52
60897;BME280;46749;32.932;-117.130;2023-07-22T07:51:55;100851.91;;;18.84;62.48
60897;BME280;46749;32.932;-117.130;2023-07-22T07:54:21;100854.56;;;18.84;62.53
60897;BME280;46749;32.932;-117.130;2023-07-22T07:56:47;100852.81;;;18.83;62.52
60897;BME280;46749;32.932;-117.130;2023-07-22T07:59:14;100853.69;;;18.83;62.33
60897;BME280;46749;32.932;-117.130;2023-07-22T08:01:40;100852.81;;;18.83;62.38
60897;BME280;46749;32.932;-117.130;2023-07-22T08:04:08;100853.69;;;18.82;62.19
60897;BME280;46749;32.932;-117.130;2023-07-22T08:06:34;100838.78;;;18.81;62.19
60897;BME280;46749;32.932;-117.130;2023-07-22T08:09:02;100842.28;;;18.80;62.31
60897;BME280;46749;32.932;-117.130;2023-07-22T08:11:28;100844.03;;;18.79;62.32
60897;BME280;46749;32.932;-117.130;2023-07-22T08:13:55;100837.00;;;18.80;62.38
60897;BME280;46749;32.932;-117.130;2023-07-22T08:16:21;100840.50;;;18.79;62.11
60897;BME280;46749;32.932;-117.130;2023-07-22T08:18:48;100844.00;;;18.78;62.22
60897;BME280;46749;32.932;-117.130;2023-07-22T08:21:14;100840.50;;;18.77;62.30
60897;BME280;46749;32.932;-117.130;2023-07-22T08:23:40;100825.59;;;18.76;62.05
60897;BME280;46749;32.932;-117.130;2023-07-22T08:26:07;100832.59;;;18.77;62.05
60897;BME280;46749;32.932;-117.130;2023-07-22T08:28:33;100831.72;;;18.77;62.41
60897;BME280;46749;32.932;-117.130;2023-07-22T08:30:59;100824.69;;;18.76;61.99
60897;BME280;46749;32.932;-117.130;2023-07-22T08:33:29;100819.44;;;18.76;61.92
60897;BME280;46749;32.932;-117.130;2023-07-22T08:35:55;100819.44;;;18.76;62.09
60897;BME280;46749;32.932;-117.130;2023-07-22T08:38:21;100815.06;;;18.75;62.11
60897;BME280;46749;32.932;-117.130;2023-07-22T08:40:51;100817.69;;;18.75;62.36
60897;BME280;46749;32.932;-117.130;2023-07-22T08:43:20;100819.44;;;18.74;62.01
60897;BME280;46749;32.932;-117.130;2023-07-22T08:45:49;100829.09;;;18.74;61.94
60897;BME280;46749;32.932;-117.130;2023-07-22T08:48:17;100831.72;;;18.74;62.08
60897;BME280;46749;32.932;-117.130;2023-07-22T08:51:12;100827.31;;;18.73;61.94
60897;BME280;46749;32.932;-117.130;2023-07-22T08:53:44;100824.69;;;18.73;61.90
60897;BME280;46749;32.932;-117.130;2023-07-22T08:56:11;100809.75;;;18.72;62.10
60897;BME280;46749;32.932;-117.130;2023-07-22T08:58:38;100812.41;;;18.72;62.20
60897;BME280;46749;32.932;-117.130;2023-07-22T09:01:05;100816.78;;;18.71;61.92
60897;BME280;46749;32.932;-117.130;2023-07-22T09:03:33;100805.38;;;18.71;62.23
60897;BME280;46749;32.932;-117.130;2023-07-22T09:06:00;100800.13;;;18.71;61.88
60897;BME280;46749;32.932;-117.130;2023-07-22T09:08:27;100803.63;;;18.70;62.30
60897;BME280;46749;32.932;-117.130;2023-07-22T09:10:53;100800.13;;;18.69;62.10
60897;BME280;46749;32.932;-117.130;2023-07-22T09:13:20;100806.25;;;18.68;62.07
60897;BME280;46749;32.932;-117.130;2023-07-22T09:15:47;100802.75;;;18.68;62.08
60897;BME280;46749;32.932;-117.130;2023-07-22T09:18:16;100818.53;;;18.68;62.17
60897;BME280;46749;32.932;-117.130;2023-07-22T09:20:42;100808.00;;;18.68;62.23
60897;BME280;46749;32.932;-117.130;2023-07-22T09:23:08;100806.22;;;18.67;62.17
60897;BME280;46749;32.932;-117.130;2023-07-22T09:25:35;100808.84;;;18.67;62.26
60897;BME280;46749;32.932;-117.130;2023-07-22T09:28:01;100814.97;;;18.66;62.06
60897;BME280;46749;32.932;-117.130;2023-07-22T09:30:29;100814.09;;;18.65;62.14
60897;BME280;46749;32.932;-117.130;2023-07-22T09:32:57;100807.06;;;18.66;62.02
60897;BME280;46749;32.932;-117.130;2023-07-22T09:35:29;100795.69;;;18.64;62.15
60897;BME280;46749;32.932;-117.130;2023-07-22T09:37:55;100797.44;;;18.65;62.11
60897;BME280;46749;32.932;-117.130;2023-07-22T09:40:26;100798.31;;;18.64;61.89
60897;BME280;46749;32.932;-117.130;2023-07-22T09:42:55;100788.66;;;18.63;62.09
60897;BME280;46749;32.932;-117.130;2023-07-22T09:45:25;100786.03;;;18.61;62.22
60897;BME280;46749;32.932;-117.130;2023-07-22T09:47:54;100787.78;;;18.60;62.00
60897;BME280;46749;32.932;-117.130;2023-07-22T09:50:25;100792.13;;;18.60;62.13
60897;BME280;46749;32.932;-117.130;2023-07-22T09:52:56;100787.78;;;18.60;62.18
60897;BME280;46749;32.932;-117.130;2023-07-22T09:55:29;100792.13;;;18.60;61.97
60897;BME280;46749;32.932;-117.130;2023-07-22T09:58:06;100778.97;;;18.58;61.99
60897;BME280;46749;32.932;-117.130;2023-07-22T10:00:35;100771.09;;;18.58;61.96
60897;BME280;46749;32.932;-117.130;2023-07-22T10:03:03;100777.22;;;18.57;61.83
60897;BME280;46749;32.932;-117.130;2023-07-22T10:05:34;100776.34;;;18.57;62.06
60897;BME280;46749;32.932;-117.130;2023-07-22T10:08:02;100777.22;;;18.57;62.04
60897;BME280;46749;32.932;-117.130;2023-07-22T10:10:37;100776.34;;;18.55;61.96
60897;BME280;46749;32.932;-117.130;2023-07-22T10:13:04;100778.09;;;18.55;61.80
60897;BME280;46749;32.932;-117.130;2023-07-22T10:15:32;100782.50;;;18.54;62.09
60897;BME280;46749;32.932;-117.130;2023-07-22T10:18:01;100786.84;;;18.54;62.14
60897;BME280;46749;32.932;-117.130;2023-07-22T10:20:28;100778.06;;;18.53;61.90
60897;BME280;46749;32.932;-117.130;2023-07-22T10:22:55;100777.19;;;18.53;61.68
60897;BME280;46749;32.932;-117.130;2023-07-22T10:25:22;100776.31;;;18.52;61.89
60897;BME280;46749;32.932;-117.130;2023-07-22T10:27:51;100777.19;;;18.51;61.75
60897;BME280;46749;32.932;-117.130;2023-07-22T10:30:17;100771.94;;;18.51;62.20
60897;BME280;46749;32.932;-117.130;2023-07-22T10:32:49;100778.09;;;18.50;61.73
60897;BME280;46749;32.932;-117.130;2023-07-22T10:38:07;100784.22;;;18.49;62.04
60897;BME280;46749;32.932;-117.130;2023-07-22T10:40:54;100778.97;;;18.49;62.12
60897;BME280;46749;32.932;-117.130;2023-07-22T10:43:32;100781.56;;;18.48;61.92
60897;BME280;46749;32.932;-117.130;2023-07-22T10:46:07;100772.78;;;18.47;61.93
60897;BME280;46749;32.932;-117.130;2023-07-22T10:48:36;100771.03;;;18.48;61.68
60897;BME280;46749;32.932;-117.130;2023-07-22T10:51:09;100778.94;;;18.46;61.99
60897;BME280;46749;32.932;-117.130;2023-07-22T10:53:44;100770.16;;;18.46;62.06
60897;BME280;46749;32.932;-117.130;2023-07-22T10:56:21;100771.91;;;18.45;61.90
60897;BME280;46749;32.932;-117.130;2023-07-22T11:06:31;100756.13;;;18.42;61.79
60897;BME280;46749;32.932;-117.130;2023-07-22T11:08:57;100754.34;;;18.41;61.69
60897;BME280;46749;32.932;-117.130;2023-07-22T11:11:37;100750.84;;;18.41;61.69
60897;BME280;46749;32.932;-117.130;2023-07-22T11:15:02;100751.72;;;18.38;61.96
60897;BME280;46749;32.932;-117.130;2023-07-22T11:17:28;100743.84;;;18.38;61.70
60897;BME280;46749;32.932;-117.130;2023-07-22T11:19:59;100754.34;;;18.38;62.05
60897;BME280;46749;32.932;-117.130;2023-07-22T11:22:26;100747.34;;;18.37;61.69
60897;BME280;46749;32.932;-117.130;2023-07-22T11:24:55;100747.34;;;18.37;61.64
60897;BME280;46749;32.932;-117.130;2023-07-22T11:27:22;100749.09;;;18.37;61.75
60897;BME280;46749;32.932;-117.130;2023-07-22T11:29:48;100743.81;;;18.35;62.00
60897;BME280;46749;32.932;-117.130;2023-07-22T11:32:16;100752.59;;;18.36;62.03
60897;BME280;46749;32.932;-117.130;2023-07-22T11:34:44;100758.69;;;18.34;61.83
60897;BME280;46749;32.932;-117.130;2023-07-22T11:37:14;100748.19;;;18.34;61.90
60897;BME280;46749;32.932;-117.130;2023-07-22T11:39:40;100751.69;;;18.33;61.71
60897;BME280;46749;32.932;-117.130;2023-07-22T11:42:08;100740.31;;;18.33;61.66
60897;BME280;46749;32.932;-117.130;2023-07-22T11:44:34;100746.44;;;18.32;62.05
60897;BME280;46749;32.932;-117.130;2023-07-22T11:47:07;100741.19;;;18.30;61.69
60897;BME280;46749;32.932;-117.130;2023-07-22T11:49:39;100743.81;;;18.30;61.95
60897;BME280;46749;32.932;-117.130;2023-07-22T11:52:09;100738.53;;;18.30;61.73
60897;BME280;46749;32.932;-117.130;2023-07-22T11:54:40;100735.91;;;18.30;62.15
60897;BME280;46749;32.932;-117.130;2023-07-22T11:57:17;100738.50;;;18.29;61.78
60897;BME280;46749;32.932;-117.130;2023-07-22T11:59:51;100741.13;;;18.29;62.06
60897;BME280;46749;32.932;-117.130;2023-07-22T12:02:19;100742.03;;;18.28;61.93
60897;BME280;46749;32.932;-117.130;2023-07-22T12:05:03;100739.38;;;18.26;61.89
60897;BME280;46749;32.932;-117.130;2023-07-22T12:07:34;100744.66;;;18.26;61.79
60897;BME280;46749;32.932;-117.130;2023-07-22T12:10:03;100743.78;;;18.26;62.07
60897;BME280;46749;32.932;-117.130;2023-07-22T12:12:35;100742.03;;;18.25;61.73
60897;BME280;46749;32.932;-117.130;2023-07-22T12:15:09;100737.63;;;18.25;61.77
60897;BME280;46749;32.932;-117.130;2023-07-22T12:17:55;100742.91;;;18.25;61.97
60897;BME280;46749;32.932;-117.130;2023-07-22T12:20:29;100742.91;;;18.24;61.85
60897;BME280;46749;32.932;-117.130;2023-07-22T12:22:56;100745.53;;;18.24;62.16
60897;BME280;46749;32.932;-117.130;2023-07-22T12:25:23;100743.78;;;18.23;61.76
60897;BME280;46749;32.932;-117.130;2023-07-22T12:27:49;100745.50;;;18.21;61.69
60897;BME280;46749;32.932;-117.130;2023-07-22T12:30:16;100750.75;;;18.21;61.78
60897;BME280;46749;32.932;-117.130;2023-07-22T12:32:43;100756.00;;;18.21;61.87
60897;BME280;46749;32.932;-117.130;2023-07-22T12:35:09;100756.88;;;18.20;62.04